createdAt,value
2018-05-09T00:01:29.595Z,2.78
2018-05-09T00:03:58.211Z,2.67
2018-05-09T00:06:26.815Z,2.78
2018-05-09T00:08:55.018Z,2.43
2018-05-09T00:11:23.215Z,3.00
2018-05-09T00:13:51.422Z,2.80
2018-05-09T00:16:19.607Z,2.53
2018-05-09T00:18:49.317Z,2.50
2018-05-09T00:21:17.523Z,2.50
2018-05-09T00:23:46.162Z,2.47
2018-05-09T00:26:14.388Z,2.43
2018-05-09T00:28:42.580Z,2.40
2018-05-09T00:31:11.158Z,2.53
2018-05-09T00:33:39.362Z,2.40
2018-05-09T00:36:07.558Z,2.60
2018-05-09T00:38:36.527Z,2.20
2018-05-09T00:41:04.723Z,2.33
2018-05-09T00:43:32.969Z,2.60
2018-05-09T00:46:01.551Z,2.97
2018-05-09T00:48:29.749Z,3.10
2018-05-09T00:50:57.946Z,2.67
2018-05-09T00:53:26.134Z,3.23
2018-05-09T00:55:54.337Z,2.67
2018-05-09T00:58:22.526Z,2.33
2018-05-09T01:00:51.137Z,2.70
2018-05-09T01:03:19.344Z,3.12
2018-05-09T01:05:47.945Z,2.57
2018-05-09T01:08:16.167Z,2.70
2018-05-09T01:10:44.755Z,2.30
2018-05-09T01:13:13.759Z,2.80
2018-05-09T01:15:41.974Z,2.43
2018-05-09T01:18:10.171Z,3.03
2018-05-09T01:20:38.362Z,2.80
2018-05-09T01:23:06.561Z,2.70
2018-05-09T01:25:34.746Z,2.67
2018-05-09T01:28:02.955Z,2.57
2018-05-09T01:30:31.174Z,2.57
2018-05-09T01:33:00.106Z,2.97
2018-05-09T01:35:28.731Z,2.30
2018-05-09T01:37:56.921Z,3.13
2018-05-09T01:40:25.191Z,2.20
2018-05-09T01:42:54.134Z,2.50
2018-05-09T01:45:22.338Z,2.43
2018-05-09T01:47:50.926Z,2.77
2018-05-09T01:50:19.115Z,2.97
2018-05-09T01:52:47.314Z,2.43
2018-05-09T01:55:15.537Z,2.70
2018-05-09T01:57:43.723Z,2.97
2018-05-09T02:00:11.915Z,2.90
2018-05-09T02:02:40.107Z,3.20
2018-05-09T02:05:08.717Z,3.10
2018-05-09T02:07:36.936Z,2.83
2018-05-09T02:10:05.127Z,2.70
2018-05-09T02:12:33.315Z,2.60
2018-05-09T02:15:01.507Z,2.57
2018-05-09T02:17:29.797Z,3.00
2018-05-09T02:19:58.673Z,2.70
2018-05-09T02:22:26.910Z,2.70
2018-05-09T02:24:55.114Z,2.77
2018-05-09T02:27:23.301Z,2.67
2018-05-09T02:29:51.498Z,2.80
2018-05-09T02:32:19.704Z,2.77
2018-05-09T02:34:47.910Z,3.20
2018-05-09T02:37:16.854Z,2.50
2018-05-09T02:39:45.099Z,2.90
2018-05-09T02:42:13.467Z,2.60
2018-05-09T02:44:41.754Z,3.00
2018-05-09T02:47:10.302Z,2.43
2018-05-09T02:49:38.596Z,2.93
2018-05-09T02:52:07.193Z,2.90
2018-05-09T02:54:35.395Z,2.90
2018-05-09T02:57:03.582Z,2.87
2018-05-09T02:59:31.775Z,2.70
2018-05-09T03:01:59.967Z,2.90
2018-05-09T03:04:28.162Z,2.93
2018-05-09T03:06:56.770Z,2.60
2018-05-09T03:09:24.969Z,2.80
2018-05-09T03:11:54.322Z,3.27
2018-05-09T03:14:23.281Z,3.00
2018-05-09T03:16:51.476Z,3.20
2018-05-09T03:19:20.066Z,2.70
2018-05-09T03:21:49.031Z,3.23
2018-05-09T03:24:17.229Z,2.90
2018-05-09T03:26:45.423Z,3.17
2018-05-09T03:29:13.611Z,3.03
2018-05-09T03:31:41.806Z,3.00
2018-05-09T03:34:09.998Z,3.07
2018-05-09T03:36:38.195Z,2.70
2018-05-09T03:39:06.394Z,3.47
2018-05-09T03:41:34.593Z,2.90
2018-05-09T03:44:02.786Z,3.20
2018-05-09T03:46:30.987Z,3.20
2018-05-09T03:48:59.946Z,3.00
2018-05-09T03:51:28.143Z,3.17
2018-05-09T03:53:56.343Z,3.17
2018-05-09T03:56:24.939Z,2.80
2018-05-09T03:58:53.154Z,3.50
2018-05-09T04:01:21.356Z,2.83
2018-05-09T04:04:01.347Z,3.23
2018-05-09T04:06:41.434Z,3.30
2018-05-09T04:09:21.932Z,2.80
2018-05-09T04:11:50.127Z,3.13
2018-05-09T04:14:18.332Z,3.20
2018-05-09T04:16:47.307Z,3.17
2018-05-09T04:19:15.888Z,3.30
2018-05-09T04:21:44.086Z,3.00
2018-05-09T04:24:13.042Z,3.10
2018-05-09T04:26:41.667Z,2.70
2018-05-09T04:29:09.872Z,3.30
2018-05-09T04:31:38.060Z,3.00
2018-05-09T04:34:06.258Z,2.77
2018-05-09T04:36:34.456Z,3.40
2018-05-09T04:39:03.057Z,3.77
2018-05-09T04:41:31.651Z,3.27
2018-05-09T04:44:00.238Z,3.20
2018-05-09T04:46:29.198Z,2.90
2018-05-09T04:48:57.392Z,2.90
2018-05-09T04:51:25.595Z,2.97
2018-05-09T04:53:53.792Z,2.90
2018-05-09T04:56:21.989Z,3.30
2018-05-09T04:58:50.182Z,3.37
2018-05-09T05:01:19.142Z,2.63
2018-05-09T05:03:47.351Z,3.07
2018-05-09T05:06:15.954Z,2.83
2018-05-09T05:08:44.552Z,3.33
2018-05-09T05:11:13.523Z,3.10
2018-05-09T05:13:41.777Z,2.83
2018-05-09T05:16:09.934Z,3.00
2018-05-09T05:18:38.427Z,2.87
2018-05-09T05:21:07.347Z,3.13
2018-05-09T05:23:35.535Z,3.10
2018-05-09T05:26:04.862Z,3.17
2018-05-09T05:28:33.861Z,3.23
2018-05-09T05:31:02.051Z,2.90
2018-05-09T05:33:30.640Z,3.37
2018-05-09T05:35:58.846Z,3.00
2018-05-09T05:38:27.802Z,3.17
2018-05-09T05:40:56.404Z,2.90
2018-05-09T05:43:24.990Z,3.10
2018-05-09T05:45:53.588Z,2.90
2018-05-09T05:48:22.566Z,2.93
2018-05-09T05:50:50.758Z,3.03
2018-05-09T05:53:18.950Z,3.00
2018-05-09T05:55:47.138Z,2.60
2018-05-09T05:58:16.098Z,2.63
2018-05-09T06:00:44.709Z,2.43
2018-05-09T06:03:12.879Z,2.83
2018-05-09T06:05:41.066Z,2.80
2018-05-09T06:08:09.283Z,2.90
2018-05-09T06:10:38.262Z,2.63
2018-05-09T06:13:06.435Z,2.83
2018-05-09T06:15:34.639Z,3.00
2018-05-09T06:18:03.226Z,3.10
2018-05-09T06:20:32.194Z,3.07
2018-05-09T06:23:01.156Z,4.13
2018-05-09T06:25:29.347Z,7.00
2018-05-09T06:27:58.331Z,3.97
2018-05-09T06:30:27.295Z,5.07
2018-05-09T06:32:55.794Z,4.60
2018-05-09T06:35:24.382Z,4.10
2018-05-09T06:37:53.372Z,5.20
2018-05-09T06:40:21.967Z,4.97
2018-05-09T06:42:50.163Z,5.37
2018-05-09T06:45:18.770Z,5.93
2018-05-09T06:47:46.974Z,4.70
2018-05-09T06:50:15.187Z,5.23
2018-05-09T06:52:43.378Z,4.17
2018-05-09T06:55:11.980Z,6.30
2018-05-09T06:57:40.212Z,6.27
2018-05-09T07:00:08.408Z,5.70
2018-05-09T07:02:37.023Z,4.23
2018-05-09T07:05:05.622Z,4.33
2018-05-09T07:07:33.814Z,6.10
2018-05-09T07:10:02.802Z,7.43
2018-05-09T07:12:31.797Z,7.90
2018-05-09T07:14:59.987Z,5.27
2018-05-09T07:17:28.178Z,5.87
2018-05-09T07:19:56.416Z,5.37
2018-05-09T07:22:24.591Z,5.63
2018-05-09T07:24:52.782Z,4.10
2018-05-09T07:27:20.983Z,5.60
2018-05-09T07:29:49.942Z,3.60
2018-05-09T07:32:18.135Z,5.03
2018-05-09T07:34:46.747Z,4.43
2018-05-09T07:37:14.954Z,4.37
2018-05-09T07:39:43.914Z,5.13
2018-05-09T07:42:13.684Z,3.75
2018-05-09T07:44:41.827Z,5.37
2018-05-09T07:47:10.443Z,6.20
2018-05-09T07:49:38.635Z,7.10
2018-05-09T07:52:07.227Z,4.97
2018-05-09T07:54:35.430Z,5.07
2018-05-09T07:57:03.630Z,6.37
2018-05-09T07:59:31.870Z,4.33
2018-05-09T08:02:00.459Z,4.50
2018-05-09T08:04:29.051Z,5.70
2018-05-09T08:06:58.028Z,3.97
2018-05-09T08:09:26.206Z,4.73
2018-05-09T08:11:55.179Z,4.07
2018-05-09T08:14:23.372Z,2.60
2018-05-09T08:16:51.574Z,2.80
2018-05-09T08:19:19.763Z,3.00
2018-05-09T08:21:47.975Z,2.80
2018-05-09T08:24:16.171Z,2.83
2018-05-09T08:26:44.754Z,2.40
2018-05-09T08:29:13.351Z,3.43
2018-05-09T08:31:41.555Z,2.97
2018-05-09T08:34:09.754Z,2.70
2018-05-09T08:36:37.973Z,2.95
2018-05-09T08:39:06.938Z,2.50
2018-05-09T08:41:35.127Z,2.43
2018-05-09T08:44:03.393Z,2.10
2018-05-09T08:46:31.524Z,4.33
2018-05-09T08:48:59.734Z,5.28
2018-05-09T08:51:28.702Z,6.07
2018-05-09T08:53:56.903Z,4.37
2018-05-09T08:56:25.867Z,4.47
2018-05-09T08:58:54.078Z,3.87
2018-05-09T09:01:23.103Z,3.50
2018-05-09T09:03:51.299Z,3.93
2018-05-09T09:06:19.522Z,3.67
2018-05-09T09:08:47.698Z,3.07
2018-05-09T09:11:15.918Z,3.80
2018-05-09T09:13:45.266Z,3.60
2018-05-09T09:16:13.464Z,3.27
2018-05-09T09:18:42.883Z,3.67
2018-05-09T09:21:11.011Z,3.77
2018-05-09T09:23:39.613Z,3.07
2018-05-09T09:26:07.847Z,3.23
2018-05-09T09:28:36.140Z,3.13
2018-05-09T09:31:04.347Z,2.60
2018-05-09T09:33:32.567Z,3.37
2018-05-09T09:36:01.167Z,3.10
2018-05-09T09:38:29.780Z,3.17
2018-05-09T09:40:58.366Z,3.13
2018-05-09T09:43:26.573Z,3.50
2018-05-09T09:45:54.772Z,3.67
2018-05-09T09:48:22.968Z,4.50
2018-05-09T09:50:51.170Z,4.80
2018-05-09T09:53:19.374Z,5.10
2018-05-09T09:55:47.571Z,4.87
2018-05-09T09:58:16.546Z,4.90
2018-05-09T10:00:44.743Z,6.20
2018-05-09T10:03:12.943Z,5.57
2018-05-09T10:05:41.146Z,6.70
2018-05-09T10:08:09.461Z,5.87
2018-05-09T10:10:37.988Z,7.87
2018-05-09T10:13:06.594Z,7.10
2018-05-09T10:15:34.800Z,7.70
2018-05-09T10:18:03.431Z,7.97
2018-05-09T10:20:31.647Z,8.23
2018-05-09T10:23:00.662Z,6.30
2018-05-09T10:25:29.632Z,6.67
2018-05-09T10:27:57.926Z,7.20
2018-05-09T10:30:26.126Z,6.93
2018-05-09T10:32:54.327Z,7.10
2018-05-09T10:35:23.288Z,5.80
2018-05-09T10:37:51.483Z,6.70
2018-05-09T10:40:19.719Z,8.80
2018-05-09T10:42:47.915Z,6.47
2018-05-09T10:45:16.888Z,6.50
2018-05-09T10:47:45.091Z,8.47
2018-05-09T10:50:13.398Z,6.37
2018-05-09T10:52:41.611Z,5.17
2018-05-09T10:55:09.838Z,5.60
2018-05-09T10:57:38.044Z,6.27
2018-05-09T11:00:06.259Z,8.37
2018-05-09T11:02:35.235Z,6.50
2018-05-09T11:05:03.570Z,7.47
2018-05-09T11:07:31.659Z,6.77
2018-05-09T11:10:00.252Z,6.17
2018-05-09T11:12:28.442Z,3.63
2018-05-09T11:14:57.409Z,2.37
2018-05-09T11:17:25.611Z,5.10
2018-05-09T11:19:54.213Z,3.00
2018-05-09T11:22:22.658Z,5.47
2018-05-09T11:24:51.238Z,4.90
2018-05-09T11:27:19.434Z,5.20
2018-05-09T11:29:47.643Z,5.60
2018-05-09T11:32:15.863Z,8.17
2018-05-09T11:34:44.458Z,7.47
2018-05-09T11:37:13.426Z,12.67
2018-05-09T11:39:42.399Z,10.67
2018-05-09T11:42:11.386Z,19.00
2018-05-09T11:44:40.019Z,15.90
2018-05-09T11:47:08.225Z,20.20
2018-05-09T11:49:36.427Z,17.90
2018-05-09T11:52:05.394Z,15.80
2018-05-09T11:54:33.622Z,12.23
2018-05-09T11:57:01.826Z,13.97
2018-05-09T11:59:30.039Z,17.07
2018-05-09T12:01:58.251Z,19.52
2018-05-09T12:04:26.462Z,14.13
2018-05-09T12:06:54.687Z,17.70
2018-05-09T12:09:22.895Z,18.50
2018-05-09T12:11:51.103Z,18.80
2018-05-09T12:14:19.481Z,18.97
2018-05-09T12:16:48.451Z,20.50
2018-05-09T12:19:16.872Z,18.83
2018-05-09T12:21:45.223Z,20.03
2018-05-09T12:24:13.428Z,18.67
2018-05-09T12:26:41.641Z,19.73
2018-05-09T12:29:09.858Z,19.07
2018-05-09T12:31:38.844Z,19.13
2018-05-09T12:34:07.047Z,19.27
2018-05-09T12:36:35.255Z,17.30
2018-05-09T12:39:03.470Z,17.03
2018-05-09T12:41:31.678Z,16.27
2018-05-09T12:43:59.903Z,16.60
2018-05-09T12:46:28.909Z,17.07
2018-05-09T12:48:57.109Z,19.43
2018-05-09T12:51:25.303Z,17.13
2018-05-09T12:53:53.899Z,17.03
2018-05-09T12:56:22.115Z,15.73
2018-05-09T12:58:50.745Z,16.00
2018-05-09T13:01:29.118Z,15.87
2018-05-09T13:03:57.332Z,11.07
2018-05-09T13:06:25.954Z,12.87
2018-05-09T13:08:54.935Z,14.13
2018-05-09T13:11:23.147Z,12.83
2018-05-09T13:13:51.751Z,11.90
2018-05-09T13:16:20.172Z,10.30
2018-05-09T13:18:48.789Z,13.10
2018-05-09T13:21:16.998Z,16.97
2018-05-09T13:23:45.216Z,12.57
2018-05-09T13:26:14.189Z,17.00
2018-05-09T13:28:42.787Z,18.00
2018-05-09T13:31:14.044Z,15.97
2018-05-09T13:33:43.115Z,14.87
2018-05-09T13:36:11.738Z,16.80
2018-05-09T13:38:39.942Z,16.30
2018-05-09T13:41:08.162Z,16.43
2018-05-09T13:43:36.359Z,16.73
2018-05-09T13:46:04.637Z,15.83
2018-05-09T13:48:32.791Z,18.03
2018-05-09T13:51:01.159Z,16.60
2018-05-09T13:53:29.362Z,15.80
2018-05-09T13:55:57.583Z,15.90
2018-05-09T13:58:25.809Z,13.97
2018-05-09T14:00:54.023Z,14.27
2018-05-09T14:03:22.235Z,15.77
2018-05-09T14:05:50.446Z,16.00
2018-05-09T14:08:19.805Z,15.10
2018-05-09T14:10:48.411Z,16.97
2018-05-09T14:13:16.624Z,15.43
2018-05-09T14:15:44.827Z,16.60
2018-05-09T14:18:13.055Z,16.43
2018-05-09T14:20:41.311Z,14.30
2018-05-09T14:23:09.527Z,15.07
2018-05-09T14:25:37.750Z,14.73
2018-05-09T14:28:05.959Z,14.80
2018-05-09T14:30:34.159Z,16.17
2018-05-09T14:33:02.363Z,15.33
2018-05-09T14:35:31.335Z,15.57
2018-05-09T14:38:00.311Z,12.97
2018-05-09T14:40:28.511Z,15.37
2018-05-09T14:42:57.482Z,15.03
2018-05-09T14:45:25.683Z,11.77
2018-05-09T14:47:54.659Z,12.87
2018-05-09T14:50:23.654Z,13.67
2018-05-09T14:52:51.854Z,15.17
2018-05-09T14:55:20.055Z,15.20
2018-05-09T14:57:48.274Z,16.03
2018-05-09T15:00:16.966Z,13.97
2018-05-09T15:02:45.146Z,11.90
2018-05-09T15:05:14.126Z,12.90
2018-05-09T15:07:42.328Z,11.83
2018-05-09T15:10:10.572Z,12.07
2018-05-09T15:12:39.543Z,10.40
2018-05-09T15:15:08.157Z,12.30
2018-05-09T15:17:37.122Z,11.97
2018-05-09T15:20:05.328Z,10.80
2018-05-09T15:22:33.946Z,11.90
2018-05-09T15:25:02.174Z,11.70
2018-05-09T15:27:30.394Z,10.07
2018-05-09T15:29:58.598Z,9.40
2018-05-09T15:32:26.823Z,9.97
2018-05-09T15:34:55.392Z,9.60
2018-05-09T15:37:24.043Z,10.87
2018-05-09T15:39:52.267Z,11.60
2018-05-09T15:42:20.483Z,10.97
2018-05-09T15:44:48.712Z,10.77
2018-05-09T15:47:17.670Z,11.10
2018-05-09T15:49:45.885Z,9.43
2018-05-09T15:52:14.107Z,8.13
2018-05-09T15:54:42.315Z,7.00
2018-05-09T15:57:10.559Z,7.33
2018-05-09T15:59:39.150Z,25.03
2018-05-09T16:02:08.114Z,13.53
2018-05-09T16:04:36.326Z,10.80
2018-05-09T16:07:04.678Z,7.20
2018-05-09T16:09:33.279Z,18.17
2018-05-09T16:12:01.493Z,9.30
2018-05-09T16:14:32.736Z,9.07
2018-05-09T16:17:00.943Z,14.00
2018-05-09T16:19:29.350Z,9.43
2018-05-09T16:21:58.345Z,10.70
2018-05-09T16:24:26.586Z,11.07
2018-05-09T16:26:55.192Z,19.63
2018-05-09T16:29:23.455Z,11.67
2018-05-09T16:31:51.660Z,11.17
2018-05-09T16:34:19.859Z,12.17
2018-05-09T16:36:49.224Z,11.43
2018-05-09T16:39:18.222Z,12.03
2018-05-09T16:41:47.197Z,11.37
2018-05-09T16:44:16.175Z,11.17
2018-05-09T16:46:44.371Z,10.57
2018-05-09T16:49:13.344Z,9.37
2018-05-09T16:51:41.936Z,10.10
2018-05-09T16:54:10.147Z,10.73
2018-05-09T16:56:38.384Z,9.23
2018-05-09T16:59:06.588Z,10.47
2018-05-09T17:01:35.277Z,9.57
2018-05-09T17:04:04.147Z,8.87
2018-05-09T17:06:32.755Z,8.10
2018-05-09T17:09:00.956Z,8.83
2018-05-09T17:11:29.915Z,9.00
2018-05-09T17:13:58.110Z,9.10
2018-05-09T17:16:26.310Z,8.37
2018-05-09T17:18:54.515Z,9.57
2018-05-09T17:21:35.160Z,9.53
2018-05-09T17:24:03.772Z,9.40
2018-05-09T17:26:31.978Z,12.30
2018-05-09T17:29:00.916Z,11.70
2018-05-09T17:31:29.091Z,11.87
2018-05-09T17:33:57.702Z,10.87
2018-05-09T17:36:26.315Z,10.47
2018-05-09T17:38:54.525Z,10.33
2018-05-09T17:41:22.734Z,10.30
2018-05-09T17:43:50.949Z,9.97
2018-05-09T17:46:19.151Z,9.03
2018-05-09T17:48:48.944Z,9.43
2018-05-09T17:51:17.139Z,8.27
2018-05-09T17:53:45.351Z,8.00
2018-05-09T17:56:13.561Z,8.40
2018-05-09T17:58:41.815Z,8.03
2018-05-09T18:01:10.440Z,7.10
2018-05-09T18:03:38.594Z,9.63
2018-05-09T18:06:06.799Z,8.50
2018-05-09T18:08:35.765Z,8.03
2018-05-09T18:11:04.729Z,9.10
2018-05-09T18:13:32.987Z,9.27
2018-05-09T18:16:01.196Z,10.20
2018-05-09T18:18:29.831Z,5.17
2018-05-09T18:20:58.049Z,3.90
2018-05-09T18:23:26.231Z,3.47
2018-05-09T18:25:54.451Z,3.90
2018-05-09T18:28:22.662Z,3.53
2018-05-09T18:30:50.970Z,4.03
2018-05-09T18:33:19.550Z,3.33
2018-05-09T18:35:47.748Z,3.40
2018-05-09T18:38:15.959Z,3.70
2018-05-09T18:40:44.178Z,3.10
2018-05-09T18:43:12.364Z,4.27
2018-05-09T18:45:41.328Z,6.33
2018-05-09T18:48:09.533Z,5.93
2018-05-09T18:50:37.750Z,6.90
2018-05-09T18:53:06.003Z,7.87
2018-05-09T18:55:34.600Z,8.13
2018-05-09T18:58:02.811Z,16.40
2018-05-09T19:00:31.406Z,19.40
2018-05-09T19:03:00.019Z,20.90
2018-05-09T19:05:28.660Z,18.17
2018-05-09T19:07:57.268Z,20.63
2018-05-09T19:10:25.554Z,20.30
2018-05-09T19:12:54.246Z,21.27
2018-05-09T19:15:22.893Z,21.03
2018-05-09T19:17:53.227Z,20.93
2018-05-09T19:20:22.234Z,19.43
2018-05-09T19:22:50.835Z,18.97
2018-05-09T19:25:19.034Z,18.97
2018-05-09T19:27:47.242Z,18.73
2018-05-09T19:30:15.450Z,17.43
2018-05-09T19:32:43.676Z,18.10
2018-05-09T19:35:11.899Z,18.33
2018-05-09T19:37:40.134Z,18.73
2018-05-09T19:40:08.757Z,16.83
2018-05-09T19:42:36.970Z,16.73
2018-05-09T19:45:05.582Z,18.73
2018-05-09T19:47:34.575Z,12.53
2018-05-09T19:50:03.551Z,9.43
2018-05-09T19:52:32.151Z,8.47
2018-05-09T19:55:01.160Z,8.30
2018-05-09T19:57:29.330Z,7.70
2018-05-09T19:59:57.527Z,8.20
2018-05-09T20:02:25.727Z,7.20
2018-05-09T20:04:54.342Z,8.17
2018-05-09T20:07:23.951Z,7.03
2018-05-09T20:09:52.152Z,8.10
2018-05-09T20:12:20.396Z,6.93
2018-05-09T20:14:48.976Z,8.03
2018-05-09T20:17:17.161Z,6.80
2018-05-09T20:19:45.365Z,7.67
2018-05-09T20:22:13.592Z,7.07
2018-05-09T20:24:41.835Z,8.30
2018-05-09T20:27:10.268Z,6.77
2018-05-09T20:29:38.486Z,6.43
2018-05-09T20:32:19.314Z,6.37
2018-05-09T20:34:47.532Z,6.20
2018-05-09T20:37:15.739Z,6.53
2018-05-09T20:39:44.728Z,7.10
2018-05-09T20:42:12.926Z,6.20
2018-05-09T20:44:41.130Z,6.50
2018-05-09T20:47:09.351Z,6.80
2018-05-09T20:49:37.607Z,6.33
2018-05-09T20:52:05.810Z,6.30
2018-05-09T20:54:34.011Z,6.73
2018-05-09T20:57:02.231Z,6.40
2018-05-09T20:59:30.852Z,6.40
2018-05-09T21:01:59.191Z,6.77
2018-05-09T21:04:27.384Z,6.47
2018-05-09T21:06:55.648Z,6.33
2018-05-09T21:09:23.852Z,6.40
2018-05-09T21:12:03.715Z,5.40
2018-05-09T21:14:31.973Z,6.37
2018-05-09T21:17:00.134Z,4.93
2018-05-09T21:19:28.348Z,5.20
2018-05-09T21:21:56.958Z,4.60
2018-05-09T21:24:25.597Z,4.97
2018-05-09T21:26:54.208Z,4.77
2018-05-09T21:29:22.402Z,4.33
2018-05-09T21:31:50.645Z,4.20
2018-05-09T21:34:18.811Z,4.77
2018-05-09T21:36:47.794Z,3.87
2018-05-09T21:39:15.986Z,4.03
2018-05-09T21:41:44.242Z,3.70
2018-05-09T21:44:12.446Z,4.37
2018-05-09T21:46:40.648Z,3.90
2018-05-09T21:49:08.864Z,3.33
2018-05-09T21:51:37.067Z,4.00
2018-05-09T21:54:05.251Z,3.40
2018-05-09T21:56:33.487Z,3.73
2018-05-09T21:59:01.693Z,3.93
2018-05-09T22:01:29.910Z,4.00
2018-05-09T22:03:58.107Z,4.03
2018-05-09T22:06:26.302Z,3.23
2018-05-09T22:08:54.517Z,3.70
2018-05-09T22:11:22.706Z,4.00
2018-05-09T22:13:50.939Z,3.60
2018-05-09T22:16:19.158Z,3.80
2018-05-09T22:18:47.509Z,3.40
2018-05-09T22:21:15.710Z,3.63
2018-05-09T22:23:43.917Z,4.03
2018-05-09T22:26:12.115Z,3.67
2018-05-09T22:28:40.494Z,3.92
2018-05-09T22:31:08.697Z,4.27
2018-05-09T22:33:36.903Z,3.70
2018-05-09T22:36:05.117Z,3.70
2018-05-09T22:38:33.319Z,3.47
2018-05-09T22:41:01.529Z,4.07
2018-05-09T22:43:29.758Z,3.90
2018-05-09T22:45:57.930Z,4.30
2018-05-09T22:48:26.139Z,4.17
2018-05-09T22:50:54.347Z,3.60
2018-05-09T22:53:22.554Z,4.00
2018-05-09T22:55:50.747Z,4.10
2018-05-09T22:58:18.961Z,4.00
2018-05-09T23:00:47.163Z,4.63
2018-05-09T23:03:15.382Z,3.80
2018-05-09T23:05:43.574Z,4.23
2018-05-09T23:08:11.767Z,4.10
2018-05-09T23:10:40.043Z,4.30
2018-05-09T23:13:08.255Z,4.77
2018-05-09T23:15:36.487Z,4.77
2018-05-09T23:18:04.695Z,4.17
2018-05-09T23:20:33.295Z,4.13
2018-05-09T23:23:01.490Z,4.30
2018-05-09T23:25:29.708Z,4.53
2018-05-09T23:27:57.936Z,4.80
2018-05-09T23:30:26.752Z,4.80
2018-05-09T23:32:54.963Z,4.30
2018-05-09T23:35:23.922Z,4.70
2018-05-09T23:37:52.135Z,4.37
2018-05-09T23:40:20.334Z,5.13
2018-05-09T23:42:49.291Z,4.03
2018-05-09T23:45:17.492Z,4.90
2018-05-09T23:47:45.690Z,4.53
2018-05-09T23:50:13.897Z,4.37
2018-05-09T23:52:42.097Z,4.40
2018-05-09T23:55:10.311Z,5.03
2018-05-09T23:57:38.589Z,4.60
